sensor_id;sensor_type;location;lat;lon;timestamp;pressure;altitude;pressure_sealevel;temperature;humidity
11001;BME280;5553;48.506;8.870;2022-08-04T00:02:02;96373.66;;;19.59;82.59
11001;BME280;5553;48.506;8.870;2022-08-04T00:04:40;96385.50;;;19.19;83.20
11001;BME280;5553;48.506;8.870;2022-08-04T00:07:15;96376.81;;;19.34;83.46
11001;BME280;5553;48.506;8.870;2022-08-04T00:09:48;96377.91;;;19.33;82.87
11001;BME280;5553;48.506;8.870;2022-08-04T00:12:21;96380.69;;;18.99;83.65
11001;BME280;5553;48.506;8.870;2022-08-04T00:14:54;96378.59;;;19.01;83.67
11001;BME280;5553;48.506;8.870;2022-08-04T00:17:29;96374.56;;;19.48;82.58
11001;BME280;5553;48.506;8.870;2022-08-04T00:20:00;96377.06;;;18.88;83.74
11001;BME280;5553;48.506;8.870;2022-08-04T00:22:30;96368.91;;;19.44;82.92
11001;BME280;5553;48.506;8.870;2022-08-04T00:25:03;96379.69;;;19.27;83.85
11001;BME280;5553;48.506;8.870;2022-08-04T00:27:32;96385.31;;;18.87;84.66
11001;BME280;5553;48.506;8.870;2022-08-04T00:30:00;96378.69;;;18.89;85.00
11001;BME280;5553;48.506;8.870;2022-08-04T00:32:29;96383.25;;;18.72;86.84
11001;BME280;5553;48.506;8.870;2022-08-04T00:34:58;96383.16;;;18.67;87.29
11001;BME280;5553;48.506;8.870;2022-08-04T01:29:48;96364.03;;;17.74;95.31
11001;BME280;5553;48.506;8.870;2022-08-04T01:32:20;96359.19;;;17.71;95.49
11001;BME280;5553;48.506;8.870;2022-08-04T01:34:58;96360.78;;;17.72;95.59
11001;BME280;5553;48.506;8.870;2022-08-04T01:37:39;96361.97;;;17.47;97.12
11001;BME280;5553;48.506;8.870;2022-08-04T01:40:13;96365.66;;;17.46;98.97
11001;BME280;5553;48.506;8.870;2022-08-04T01:42:42;96359.19;;;17.42;99.88
11001;BME280;5553;48.506;8.870;2022-08-04T01:45:14;96364.22;;;17.56;100.00
11001;BME280;5553;48.506;8.870;2022-08-04T01:47:48;96356.97;;;17.96;98.41
11001;BME280;5553;48.506;8.870;2022-08-04T01:50:17;96361.59;;;18.18;94.92
11001;BME280;5553;48.506;8.870;2022-08-04T01:52:46;96351.47;;;18.20;92.82
11001;BME280;5553;48.506;8.870;2022-08-04T01:55:15;96356.56;;;18.21;92.47
11001;BME280;5553;48.506;8.870;2022-08-04T01:57:44;96353.75;;;17.66;96.03
11001;BME280;5553;48.506;8.870;2022-08-04T02:00:18;96352.97;;;17.53;97.92
11001;BME280;5553;48.506;8.870;2022-08-04T02:02:48;96351.91;;;17.38;99.70
11001;BME280;5553;48.506;8.870;2022-08-04T02:05:18;96362.47;;;17.61;98.29
11001;BME280;5553;48.506;8.870;2022-08-04T02:08:01;96357.38;;;17.60;97.43
11001;BME280;5553;48.506;8.870;2022-08-04T02:10:44;96366.81;;;17.50;98.19
11001;BME280;5553;48.506;8.870;2022-08-04T02:13:22;96356.09;;;17.34;98.76
11001;BME280;5553;48.506;8.870;2022-08-04T02:15:59;96355.19;;;17.28;99.20
11001;BME280;5553;48.506;8.870;2022-08-04T02:18:31;96351.94;;;17.26;100.00
11001;BME280;5553;48.506;8.870;2022-08-04T02:21:01;96347.19;;;17.28;99.73
11001;BME280;5553;48.506;8.870;2022-08-04T02:23:34;96346.53;;;17.21;100.00
11001;BME280;5553;48.506;8.870;2022-08-04T02:26:05;96347.47;;;17.15;100.00
11001;BME280;5553;48.506;8.870;2022-08-04T02:28:44;96347.72;;;17.01;100.00
11001;BME280;5553;48.506;8.870;2022-08-04T02:31:21;96355.84;;;17.07;100.00
11001;BME280;5553;48.506;8.870;2022-08-04T02:33:58;96345.84;;;17.14;100.00
11001;BME280;5553;48.506;8.870;2022-08-04T02:36:30;96342.78;;;16.93;100.00
11001;BME280;5553;48.506;8.870;2022-08-04T02:39:04;96350.66;;;16.88;100.00
11001;BME280;5553;48.506;8.870;2022-08-04T02:41:33;96340.47;;;16.85;100.00
11001;BME280;5553;48.506;8.870;2022-08-04T02:44:03;96338.28;;;16.82;100.00
11001;BME280;5553;48.506;8.870;2022-08-04T02:46:36;96342.56;;;16.83;100.00
11001;BME280;5553;48.506;8.870;2022-08-04T02:49:06;96345.69;;;16.80;100.00
11001;BME280;5553;48.506;8.870;2022-08-04T02:51:39;96340.03;;;16.53;100.00
11001;BME280;5553;48.506;8.870;2022-08-04T02:54:08;96335.16;;;16.50;100.00
11001;BME280;5553;48.506;8.870;2022-08-04T02:56:37;96337.47;;;16.46;100.00
11001;BME280;5553;48.506;8.870;2022-08-04T02:59:08;96338.16;;;16.53;100.00
11001;BME280;5553;48.506;8.870;2022-08-04T03:01:40;96340.47;;;16.50;100.00
11001;BME280;5553;48.506;8.870;2022-08-04T03:04:23;96339.69;;;16.49;100.00
11001;BME280;5553;48.506;8.870;2022-08-04T03:07:19;96334.00;;;16.57;100.00
11001;BME280;5553;48.506;8.870;2022-08-04T03:10:20;96340.72;;;16.60;100.00
11001;BME280;5553;48.506;8.870;2022-08-04T03:13:29;96337.94;;;16.55;100.00
11001;BME280;5553;48.506;8.870;2022-08-04T03:22:58;96342.69;;;16.41;100.00
11001;BME280;5553;48.506;8.870;2022-08-04T03:35:15;96354.13;;;16.30;100.00
11001;BME280;5553;48.506;8.870;2022-08-04T03:38:11;96356.00;;;16.18;100.00
11001;BME280;5553;48.506;8.870;2022-08-04T03:41:03;96353.66;;;16.09;100.00
11001;BME280;5553;48.506;8.870;2022-08-04T03:44:01;96356.31;;;16.09;100.00
11001;BME280;5553;48.506;8.870;2022-08-04T03:46:52;96363.75;;;16.07;100.00
11001;BME280;5553;48.506;8.870;2022-08-04T03:49:45;96357.25;;;16.15;100.00
11001;BME280;5553;48.506;8.870;2022-08-04T03:52:35;96362.09;;;16.06;100.00
11001;BME280;5553;48.506;8.870;2022-08-04T03:55:51;96353.56;;;16.04;100.00
11001;BME280;5553;48.506;8.870;2022-08-04T03:58:52;96363.50;;;15.97;100.00
11001;BME280;5553;48.506;8.870;2022-08-04T04:01:55;96354.47;;;15.98;100.00
11001;BME280;5553;48.506;8.870;2022-08-04T04:04:36;96346.47;;;15.98;100.00
11001;BME280;5553;48.506;8.870;2022-08-04T04:10:29;96364.59;;;15.78;100.00
11001;BME280;5553;48.506;8.870;2022-08-04T04:13:18;96356.97;;;15.70;100.00
11001;BME280;5553;48.506;8.870;2022-08-04T04:16:19;96355.81;;;15.77;100.00
11001;BME280;5553;48.506;8.870;2022-08-04T04:22:14;96360.31;;;15.77;100.00
11001;BME280;5553;48.506;8.870;2022-08-04T04:25:02;96353.88;;;15.84;100.00
11001;BME280;5553;48.506;8.870;2022-08-04T04:27:39;96358.81;;;15.81;100.00
11001;BME280;5553;48.506;8.870;2022-08-04T04:30:18;96356.28;;;15.86;100.00
11001;BME280;5553;48.506;8.870;2022-08-04T04:33:02;96359.53;;;15.88;100.00
11001;BME280;5553;48.506;8.870;2022-08-04T04:35:39;96365.00;;;15.93;100.00
11001;BME280;5553;48.506;8.870;2022-08-04T04:38:44;96364.50;;;15.96;100.00
11001;BME280;5553;48.506;8.870;2022-08-04T04:41:29;96360.38;;;16.00;100.00
11001;BME280;5553;48.506;8.870;2022-08-04T04:44:18;96355.88;;;16.13;100.00
11001;BME280;5553;48.506;8.870;2022-08-04T04:47:02;96363.50;;;16.09;100.00
11001;BME280;5553;48.506;8.870;2022-08-04T04:49:42;96365.69;;;16.12;100.00
11001;BME280;5553;48.506;8.870;2022-08-04T04:52:24;96363.03;;;16.24;100.00
11001;BME280;5553;48.506;8.870;2022-08-04T04:55:01;96367.59;;;16.35;100.00
11001;BME280;5553;48.506;8.870;2022-08-04T04:57:34;96368.28;;;16.42;100.00
11001;BME280;5553;48.506;8.870;2022-08-04T05:00:05;96366.84;;;17.10;100.00
11001;BME280;5553;48.506;8.870;2022-08-04T05:03:03;96369.75;;;17.66;100.00
11001;BME280;5553;48.506;8.870;2022-08-04T05:05:41;96365.78;;;17.97;95.64
11001;BME280;5553;48.506;8.870;2022-08-04T05:08:31;96369.22;;;18.26;92.49
11001;BME280;5553;48.506;8.870;2022-08-04T05:11:13;96365.31;;;18.00;93.07
11001;BME280;5553;48.506;8.870;2022-08-04T05:13:47;96370.16;;;18.54;90.55
11001;BME280;5553;48.506;8.870;2022-08-04T05:16:19;96371.75;;;18.72;87.92
11001;BME280;5553;48.506;8.870;2022-08-04T05:18:56;96376.81;;;18.90;85.81
11001;BME280;5553;48.506;8.870;2022-08-04T05:21:37;96366.47;;;19.15;83.95
11001;BME280;5553;48.506;8.870;2022-08-04T05:24:09;96373.41;;;18.94;86.17
11001;BME280;5553;48.506;8.870;2022-08-04T05:26:42;96373.84;;;19.30;83.65
11001;BME280;5553;48.506;8.870;2022-08-04T05:29:17;96368.44;;;19.25;84.91
11001;BME280;5553;48.506;8.870;2022-08-04T05:31:50;96374.09;;;19.07;88.43
11001;BME280;5553;48.506;8.870;2022-08-04T05:34:25;96371.06;;;18.98;90.15
11001;BME280;5553;48.506;8.870;2022-08-04T05:36:58;96377.84;;;19.06;89.26
11001;BME280;5553;48.506;8.870;2022-08-04T05:39:29;96365.56;;;19.10;89.31
11001;BME280;5553;48.506;8.870;2022-08-04T05:42:00;96369.59;;;19.34;87.33
11001;BME280;5553;48.506;8.870;2022-08-04T05:44:29;96370.88;;;19.76;83.18
11001;BME280;5553;48.506;8.870;2022-08-04T05:46:59;96376.09;;;19.87;81.36
11001;BME280;5553;48.506;8.870;2022-08-04T05:49:32;96377.25;;;19.97;81.55
11001;BME280;5553;48.506;8.870;2022-08-04T05:52:02;96376.63;;;19.89;82.70
11001;BME280;5553;48.506;8.870;2022-08-04T05:54:33;96379.66;;;19.98;82.00
11001;BME280;5553;48.506;8.870;2022-08-04T05:57:04;96385.13;;;20.13;82.28
11001;BME280;5553;48.506;8.870;2022-08-04T05:59:36;96375.88;;;20.26;82.13
11001;BME280;5553;48.506;8.870;2022-08-04T06:02:08;96379.78;;;20.46;81.37
11001;BME280;5553;48.506;8.870;2022-08-04T06:04:41;96379.97;;;20.71;80.37
11001;BME280;5553;48.506;8.870;2022-08-04T06:07:10;96384.88;;;20.85;78.86
11001;BME280;5553;48.506;8.870;2022-08-04T06:09:38;96379.38;;;21.06;77.24
11001;BME280;5553;48.506;8.870;2022-08-04T06:12:11;96383.03;;;21.43;76.57
11001;BME280;5553;48.506;8.870;2022-08-04T06:14:43;96378.28;;;21.81;75.58
11001;BME280;5553;48.506;8.870;2022-08-04T06:17:14;96378.31;;;21.91;73.87
11001;BME280;5553;48.506;8.870;2022-08-04T06:19:49;96379.41;;;22.05;72.50
11001;BME280;5553;48.506;8.870;2022-08-04T06:22:21;96373.78;;;22.22;71.74
11001;BME280;5553;48.506;8.870;2022-08-04T06:24:52;96376.44;;;22.73;69.63
11001;BME280;5553;48.506;8.870;2022-08-04T06:27:22;96377.53;;;22.77;71.19
11001;BME280;5553;48.506;8.870;2022-08-04T06:29:51;96379.19;;;22.37;70.43
11001;BME280;5553;48.506;8.870;2022-08-04T06:32:21;96375.03;;;23.11;68.79
11001;BME280;5553;48.506;8.870;2022-08-04T06:35:05;96378.72;;;23.31;69.20
11001;BME280;5553;48.506;8.870;2022-08-04T06:37:36;96377.56;;;23.52;67.96
11001;BME280;5553;48.506;8.870;2022-08-04T06:40:07;96377.31;;;23.98;65.58
11001;BME280;5553;48.506;8.870;2022-08-04T06:42:37;96364.63;;;24.04;62.46
11001;BME280;5553;48.506;8.870;2022-08-04T06:45:07;96375.91;;;24.45;61.80
11001;BME280;5553;48.506;8.870;2022-08-04T06:47:37;96378.44;;;24.61;62.08
11001;BME280;5553;48.506;8.870;2022-08-04T06:50:10;96384.75;;;24.80;64.38
11001;BME280;5553;48.506;8.870;2022-08-04T06:52:38;96379.16;;;24.95;61.51
11001;BME280;5553;48.506;8.870;2022-08-04T06:55:07;96374.97;;;25.37;58.13
11001;BME280;5553;48.506;8.870;2022-08-04T06:57:36;96382.13;;;25.66;59.56
11001;BME280;5553;48.506;8.870;2022-08-04T07:00:07;96376.88;;;25.56;57.42
11001;BME280;5553;48.506;8.870;2022-08-04T07:02:39;96381.16;;;25.99;56.38
11001;BME280;5553;48.506;8.870;2022-08-04T07:05:11;96373.94;;;26.46;55.73
11001;BME280;5553;48.506;8.870;2022-08-04T07:07:39;96377.88;;;26.54;54.68
11001;BME280;5553;48.506;8.870;2022-08-04T07:10:09;96381.47;;;26.96;54.72
11001;BME280;5553;48.506;8.870;2022-08-04T07:12:39;96377.03;;;27.55;53.87
11001;BME280;5553;48.506;8.870;2022-08-04T07:15:08;96379.28;;;27.53;54.54
11001;BME280;5553;48.506;8.870;2022-08-04T07:17:38;96356.84;;;27.89;50.37
11001;BME280;5553;48.506;8.870;2022-08-04T07:20:10;96366.78;;;27.94;50.97
11001;BME280;5553;48.506;8.870;2022-08-04T07:22:40;96362.63;;;27.46;52.13
11001;BME280;5553;48.506;8.870;2022-08-04T07:25:10;96355.69;;;28.26;50.35
11001;BME280;5553;48.506;8.870;2022-08-04T07:30:13;96342.41;;;28.39;48.69
11001;BME280;5553;48.506;8.870;2022-08-04T07:32:42;96347.59;;;28.89;47.65
11001;BME280;5553;48.506;8.870;2022-08-04T07:35:14;96341.75;;;29.44;45.82
11001;BME280;5553;48.506;8.870;2022-08-04T07:37:43;96344.38;;;28.78;47.25
11001;BME280;5553;48.506;8.870;2022-08-04T07:40:11;96345.44;;;29.57;45.99
11001;BME280;5553;48.506;8.870;2022-08-04T07:42:39;96349.50;;;29.77;45.95
11001;BME280;5553;48.506;8.870;2022-08-04T07:45:09;96338.78;;;29.63;45.82
11001;BME280;5553;48.506;8.870;2022-08-04T07:47:38;96343.72;;;29.69;45.78
11001;BME280;5553;48.506;8.870;2022-08-04T07:50:08;96330.16;;;29.69;44.69
11001;BME280;5553;48.506;8.870;2022-08-04T07:52:40;96361.00;;;30.60;44.91
11001;BME280;5553;48.506;8.870;2022-08-04T07:55:08;96333.00;;;30.42;43.76
11001;BME280;5553;48.506;8.870;2022-08-04T07:57:37;96355.66;;;31.20;43.96
11001;BME280;5553;48.506;8.870;2022-08-04T08:00:07;96342.69;;;31.16;44.05
11001;BME280;5553;48.506;8.870;2022-08-04T08:02:37;96332.28;;;30.80;43.40
11001;BME280;5553;48.506;8.870;2022-08-04T08:05:07;96353.03;;;31.91;43.02
11001;BME280;5553;48.506;8.870;2022-08-04T08:07:39;96334.47;;;32.05;41.28
11001;BME280;5553;48.506;8.870;2022-08-04T08:10:11;96330.38;;;32.66;40.35
11001;BME280;5553;48.506;8.870;2022-08-04T08:12:40;96307.63;;;31.45;41.44
11001;BME280;5553;48.506;8.870;2022-08-04T08:15:10;96343.38;;;32.93;41.29
11001;BME280;5553;48.506;8.870;2022-08-04T08:17:39;96331.16;;;33.48;39.13
11001;BME280;5553;48.506;8.870;2022-08-04T08:20:09;96316.06;;;33.67;38.24
11001;BME280;5553;48.506;8.870;2022-08-04T08:22:40;96335.09;;;34.16;38.30
11001;BME280;5553;48.506;8.870;2022-08-04T08:25:10;96331.25;;;34.61;37.58
11001;BME280;5553;48.506;8.870;2022-08-04T08:27:38;96325.78;;;34.93;36.02
11001;BME280;5553;48.506;8.870;2022-08-04T08:30:08;96329.34;;;34.49;37.78
11001;BME280;5553;48.506;8.870;2022-08-04T08:32:37;96341.69;;;35.34;36.42
11001;BME280;5553;48.506;8.870;2022-08-04T08:35:06;96335.84;;;35.52;35.77
11001;BME280;5553;48.506;8.870;2022-08-04T08:37:40;96336.91;;;35.63;36.08
11001;BME280;5553;48.506;8.870;2022-08-04T08:40:24;96314.75;;;36.07;33.62
11001;BME280;5553;48.506;8.870;2022-08-04T08:43:10;96328.53;;;35.75;34.69
11001;BME280;5553;48.506;8.870;2022-08-04T08:45:55;96313.34;;;35.62;34.20
11001;BME280;5553;48.506;8.870;2022-08-04T08:48:47;96326.53;;;36.69;33.67
11001;BME280;5553;48.506;8.870;2022-08-04T08:51:48;96302.88;;;35.83;32.99
11001;BME280;5553;48.506;8.870;2022-08-04T08:54:41;96290.22;;;35.44;33.51
11001;BME280;5553;48.506;8.870;2022-08-04T08:57:21;96321.03;;;37.15;32.49
11001;BME280;5553;48.506;8.870;2022-08-04T09:00:02;96319.00;;;36.66;32.65
11001;BME280;5553;48.506;8.870;2022-08-04T09:02:51;96334.44;;;37.70;32.54
11001;BME280;5553;48.506;8.870;2022-08-04T09:05:33;96311.09;;;36.42;32.67
11001;BME280;5553;48.506;8.870;2022-08-04T09:08:16;96302.47;;;36.86;31.48
11001;BME280;5553;48.506;8.870;2022-08-04T09:10:53;96308.97;;;36.54;32.70
11001;BME280;5553;48.506;8.870;2022-08-04T09:13:32;96278.25;;;36.06;31.58
11001;BME280;5553;48.506;8.870;2022-08-04T09:16:05;96291.84;;;36.84;31.31
11001;BME280;5553;48.506;8.870;2022-08-04T09:18:41;96310.59;;;38.11;29.33
11001;BME280;5553;48.506;8.870;2022-08-04T09:21:17;96323.16;;;38.80;29.69
11001;BME280;5553;48.506;8.870;2022-08-04T09:23:59;96295.84;;;38.27;29.22
11001;BME280;5553;48.506;8.870;2022-08-04T09:26:38;96281.75;;;38.35;28.56
11001;BME280;5553;48.506;8.870;2022-08-04T09:29:12;96278.31;;;38.08;28.82
11001;BME280;5553;48.506;8.870;2022-08-04T09:31:45;96273.00;;;37.59;28.89
11001;BME280;5553;48.506;8.870;2022-08-04T09:34:25;96307.28;;;39.10;28.44
11001;BME280;5553;48.506;8.870;2022-08-04T09:37:06;96302.41;;;39.41;27.72
11001;BME280;5553;48.506;8.870;2022-08-04T09:39:44;96267.31;;;38.42;28.16
11001;BME280;5553;48.506;8.870;2022-08-04T09:42:23;96257.06;;;38.05;28.11
11001;BME280;5553;48.506;8.870;2022-08-04T09:45:00;96299.56;;;39.27;27.86
11001;BME280;5553;48.506;8.870;2022-08-04T09:47:36;96221.22;;;37.38;26.64
11001;BME280;5553;48.506;8.870;2022-08-04T09:50:15;96264.31;;;38.21;28.25
11001;BME280;5553;48.506;8.870;2022-08-04T09:52:55;96293.66;;;39.91;25.42
11001;BME280;5553;48.506;8.870;2022-08-04T09:55:33;96287.47;;;40.15;26.01
11001;BME280;5553;48.506;8.870;2022-08-04T09:58:15;96292.31;;;40.72;25.58
11001;BME280;5553;48.506;8.870;2022-08-04T10:00:50;96298.69;;;41.08;25.60
11001;BME280;5553;48.506;8.870;2022-08-04T10:03:22;96276.09;;;40.49;25.71
11001;BME280;5553;48.506;8.870;2022-08-04T10:06:07;96295.91;;;41.19;25.63
11001;BME280;5553;48.506;8.870;2022-08-04T10:08:51;96277.31;;;41.19;25.24
11001;BME280;5553;48.506;8.870;2022-08-04T10:11:32;96260.38;;;41.03;24.59
11001;BME280;5553;48.506;8.870;2022-08-04T10:14:12;96213.41;;;39.48;25.28
11001;BME280;5553;48.506;8.870;2022-08-04T10:16:54;96220.84;;;40.38;23.74
11001;BME280;5553;48.506;8.870;2022-08-04T10:19:28;96264.97;;;41.71;23.54
11001;BME280;5553;48.506;8.870;2022-08-04T10:22:07;96241.38;;;40.94;24.21
11001;BME280;5553;48.506;8.870;2022-08-04T10:24:48;96224.75;;;40.34;24.09
11001;BME280;5553;48.506;8.870;2022-08-04T10:27:24;96202.84;;;39.68;24.47
11001;BME280;5553;48.506;8.870;2022-08-04T10:30:03;96285.44;;;42.09;24.91
11001;BME280;5553;48.506;8.870;2022-08-04T10:32:43;96173.69;;;39.67;23.49
11001;BME280;5553;48.506;8.870;2022-08-04T10:35:13;96232.28;;;41.23;24.16
11001;BME280;5553;48.506;8.870;2022-08-04T10:37:47;96221.63;;;41.21;23.15
11001;BME280;5553;48.506;8.870;2022-08-04T10:40:26;96208.63;;;41.11;22.32
11001;BME280;5553;48.506;8.870;2022-08-04T10:43:14;96281.03;;;43.34;22.89
11001;BME280;5553;48.506;8.870;2022-08-04T10:45:51;96174.28;;;40.76;22.76
11001;BME280;5553;48.506;8.870;2022-08-04T10:48:29;96198.72;;;40.38;24.77
11001;BME280;5553;48.506;8.870;2022-08-04T10:51:05;96214.47;;;41.41;23.07
11001;BME280;5553;48.506;8.870;2022-08-04T10:53:37;96211.34;;;41.25;23.50
11001;BME280;5553;48.506;8.870;2022-08-04T10:56:12;96234.97;;;41.62;23.90
11001;BME280;5553;48.506;8.870;2022-08-04T10:58:45;96193.19;;;40.88;23.25
11001;BME280;5553;48.506;8.870;2022-08-04T11:01:22;96152.69;;;39.44;23.80
11001;BME280;5553;48.506;8.870;2022-08-04T11:03:55;96187.56;;;39.88;23.78
11001;BME280;5553;48.506;8.870;2022-08-04T11:06:25;96160.75;;;39.89;23.02
11001;BME280;5553;48.506;8.870;2022-08-04T11:08:54;96167.44;;;39.77;24.08
11001;BME280;5553;48.506;8.870;2022-08-04T11:11:29;96148.84;;;38.90;24.43
11001;BME280;5553;48.506;8.870;2022-08-04T11:14:01;96163.53;;;39.08;24.35
11001;BME280;5553;48.506;8.870;2022-08-04T11:16:37;96211.38;;;40.89;24.45
11001;BME280;5553;48.506;8.870;2022-08-04T11:19:20;96207.34;;;41.33;22.98
11001;BME280;5553;48.506;8.870;2022-08-04T11:21:55;96205.69;;;41.68;22.67
11001;BME280;5553;48.506;8.870;2022-08-04T11:24:25;96203.78;;;41.43;23.55
11001;BME280;5553;48.506;8.870;2022-08-04T11:27:05;96185.69;;;41.00;23.78
11001;BME280;5553;48.506;8.870;2022-08-04T11:29:44;96211.69;;;41.52;24.00
11001;BME280;5553;48.506;8.870;2022-08-04T11:32:19;96145.47;;;40.52;22.71
11001;BME280;5553;48.506;8.870;2022-08-04T11:34:57;96145.84;;;40.58;21.74
11001;BME280;5553;48.506;8.870;2022-08-04T11:37:40;96089.72;;;39.64;20.98
11001;BME280;5553;48.506;8.870;2022-08-04T11:40:12;96112.09;;;39.41;22.23
11001;BME280;5553;48.506;8.870;2022-08-04T11:42:51;96165.50;;;41.28;22.16
11001;BME280;5553;48.506;8.870;2022-08-04T11:45:28;96134.00;;;40.64;21.56
11001;BME280;5553;48.506;8.870;2022-08-04T11:48:04;96131.25;;;40.39;22.00
11001;BME280;5553;48.506;8.870;2022-08-04T11:50:38;96126.50;;;40.22;22.15
11001;BME280;5553;48.506;8.870;2022-08-04T11:53:15;96148.25;;;40.59;22.55
11001;BME280;5553;48.506;8.870;2022-08-04T11:55:44;96136.69;;;40.03;23.23
11001;BME280;5553;48.506;8.870;2022-08-04T11:58:14;96124.06;;;39.81;22.54
11001;BME280;5553;48.506;8.870;2022-08-04T12:00:52;96162.00;;;40.91;22.61
11001;BME280;5553;48.506;8.870;2022-08-04T12:03:33;96125.34;;;40.59;21.33
11001;BME280;5553;48.506;8.870;2022-08-04T12:06:09;96107.81;;;39.54;23.06
11001;BME280;5553;48.506;8.870;2022-08-04T12:08:59;96170.56;;;41.40;22.30
11001;BME280;5553;48.506;8.870;2022-08-04T12:11:54;96139.50;;;40.89;21.63
11001;BME280;5553;48.506;8.870;2022-08-04T12:14:35;96171.03;;;41.24;22.31
11001;BME280;5553;48.506;8.870;2022-08-04T12:17:07;96073.75;;;38.45;23.13
11001;BME280;5553;48.506;8.870;2022-08-04T12:19:45;96126.31;;;39.50;23.60
11001;BME280;5553;48.506;8.870;2022-08-04T12:22:19;96087.78;;;37.85;25.46
11001;BME280;5553;48.506;8.870;2022-08-04T12:24:53;96167.53;;;40.34;23.89
11001;BME280;5553;48.506;8.870;2022-08-04T12:27:30;96158.09;;;40.49;23.54
11001;BME280;5553;48.506;8.870;2022-08-04T12:30:00;96158.88;;;40.68;22.80
11001;BME280;5553;48.506;8.870;2022-08-04T12:32:33;96146.63;;;40.26;23.00
11001;BME280;5553;48.506;8.870;2022-08-04T12:35:14;96125.72;;;40.21;22.44
11001;BME280;5553;48.506;8.870;2022-08-04T12:37:51;96136.31;;;40.01;23.06
11001;BME280;5553;48.506;8.870;2022-08-04T12:40:26;96154.44;;;41.24;22.31
11001;BME280;5553;48.506;8.870;2022-08-04T12:42:59;96141.09;;;40.80;22.07
11001;BME280;5553;48.506;8.870;2022-08-04T12:45:30;96152.09;;;41.12;22.70
11001;BME280;5553;48.506;8.870;2022-08-04T12:48:03;96129.22;;;41.04;21.65
11001;BME280;5553;48.506;8.870;2022-08-04T12:50:35;96074.09;;;38.99;22.94
11001;BME280;5553;48.506;8.870;2022-08-04T12:53:11;96105.28;;;38.51;25.75
11001;BME280;5553;48.506;8.870;2022-08-04T12:55:44;96088.38;;;38.08;25.29
11001;BME280;5553;48.506;8.870;2022-08-04T12:58:19;96047.41;;;37.21;24.98
11001;BME280;5553;48.506;8.870;2022-08-04T13:00:52;96038.09;;;36.69;25.66
11001;BME280;5553;48.506;8.870;2022-08-04T13:03:22;96059.84;;;36.82;26.03
11001;BME280;5553;48.506;8.870;2022-08-04T13:05:57;96052.06;;;36.57;25.89
11001;BME280;5553;48.506;8.870;2022-08-04T13:08:25;96114.09;;;37.45;27.92
11001;BME280;5553;48.506;8.870;2022-08-04T13:10:56;96091.00;;;37.23;27.06
11001;BME280;5553;48.506;8.870;2022-08-04T13:13:28;96045.06;;;35.87;27.36
11001;BME280;5553;48.506;8.870;2022-08-04T13:15:59;96084.38;;;36.67;27.47
11001;BME280;5553;48.506;8.870;2022-08-04T13:18:30;96076.31;;;36.28;28.70
11001;BME280;5553;48.506;8.870;2022-08-04T13:21:11;96082.50;;;37.02;27.29
11001;BME280;5553;48.506;8.870;2022-08-04T13:23:41;96070.50;;;36.07;29.07
11001;BME280;5553;48.506;8.870;2022-08-04T13:26:11;96104.09;;;37.33;27.40
11001;BME280;5553;48.506;8.870;2022-08-04T13:28:42;96136.72;;;38.98;26.10
11001;BME280;5553;48.506;8.870;2022-08-04T13:31:14;96136.13;;;39.41;25.65
11001;BME280;5553;48.506;8.870;2022-08-04T13:33:45;96137.09;;;39.98;24.86
11001;BME280;5553;48.506;8.870;2022-08-04T13:36:17;96137.19;;;40.63;23.97
11001;BME280;5553;48.506;8.870;2022-08-04T13:38:48;96101.25;;;40.48;22.75
11001;BME280;5553;48.506;8.870;2022-08-04T13:41:19;96122.91;;;41.04;22.47
11001;BME280;5553;48.506;8.870;2022-08-04T13:43:49;96102.41;;;40.47;23.14
11001;BME280;5553;48.506;8.870;2022-08-04T13:46:22;96102.84;;;40.42;23.49
11001;BME280;5553;48.506;8.870;2022-08-04T13:48:52;96100.81;;;40.82;22.50
11001;BME280;5553;48.506;8.870;2022-08-04T13:51:25;96112.13;;;41.34;21.51
11001;BME280;5553;48.506;8.870;2022-08-04T13:53:56;96059.81;;;39.88;22.12
11001;BME280;5553;48.506;8.870;2022-08-04T13:56:29;96069.72;;;40.21;22.47
11001;BME280;5553;48.506;8.870;2022-08-04T13:59:00;96067.31;;;40.26;22.36
11001;BME280;5553;48.506;8.870;2022-08-04T14:01:30;96049.00;;;39.22;23.68
11001;BME280;5553;48.506;8.870;2022-08-04T14:04:03;96055.00;;;39.52;22.85
11001;BME280;5553;48.506;8.870;2022-08-04T14:06:44;96055.84;;;39.85;22.43
11001;BME280;5553;48.506;8.870;2022-08-04T14:09:18;96049.88;;;39.62;22.46
11001;BME280;5553;48.506;8.870;2022-08-04T14:11:49;96007.91;;;37.78;24.67
11001;BME280;5553;48.506;8.870;2022-08-04T14:14:20;96000.44;;;37.00;25.17
11001;BME280;5553;48.506;8.870;2022-08-04T14:17:01;96003.16;;;36.66;25.67
11001;BME280;5553;48.506;8.870;2022-08-04T14:19:49;96021.75;;;37.10;26.15
11001;BME280;5553;48.506;8.870;2022-08-04T14:22:32;96043.22;;;37.35;27.13
11001;BME280;5553;48.506;8.870;2022-08-04T14:25:06;96064.72;;;38.45;25.91
11001;BME280;5553;48.506;8.870;2022-08-04T14:27:42;96012.25;;;36.47;27.34
11001;BME280;5553;48.506;8.870;2022-08-04T14:30:24;96044.31;;;37.64;25.62
11001;BME280;5553;48.506;8.870;2022-08-04T14:32:54;96079.50;;;38.81;24.91
11001;BME280;5553;48.506;8.870;2022-08-04T14:35:23;96074.88;;;38.96;25.41
11001;BME280;5553;48.506;8.870;2022-08-04T14:37:55;96084.59;;;39.70;24.63
11001;BME280;5553;48.506;8.870;2022-08-04T14:40:25;96049.63;;;38.90;24.36
11001;BME280;5553;48.506;8.870;2022-08-04T14:42:55;96057.03;;;38.75;24.94
11001;BME280;5553;48.506;8.870;2022-08-04T14:45:29;96063.22;;;39.31;24.05
11001;BME280;5553;48.506;8.870;2022-08-04T14:47:58;96084.25;;;39.96;24.18
11001;BME280;5553;48.506;8.870;2022-08-04T14:50:33;96048.72;;;39.66;23.02
11001;BME280;5553;48.506;8.870;2022-08-04T14:53:07;96037.44;;;38.91;24.01
11001;BME280;5553;48.506;8.870;2022-08-04T14:55:36;96034.34;;;39.10;22.90
11001;BME280;5553;48.506;8.870;2022-08-04T14:58:05;96044.34;;;39.40;23.90
11001;BME280;5553;48.506;8.870;2022-08-04T15:00:35;96011.34;;;38.71;22.82
11001;BME280;5553;48.506;8.870;2022-08-04T15:03:06;96008.22;;;38.13;23.46
11001;BME280;5553;48.506;8.870;2022-08-04T15:05:36;96019.00;;;37.44;26.57
11001;BME280;5553;48.506;8.870;2022-08-04T15:08:08;96005.00;;;37.22;26.18
11001;BME280;5553;48.506;8.870;2022-08-04T15:10:37;96023.34;;;37.89;25.32
11001;BME280;5553;48.506;8.870;2022-08-04T15:13:07;96044.91;;;38.32;25.67